LOWW

Vienna International Airport

Vienna, Austria
TAF AMD LOWW 230809Z 2308/2412 20006KT CAVOK TX27/2314Z TN16/2406Z TEMPO 2308/2312 30010KT 9999 FEW050 SCT200 BECMG 2312/2314 30010KT 9999 FEW050 FEW070CB SCT300 PROB30 TEMPO 2315/2324 30015G25KT 6000 -TSRA FEW050CB BKN080 TEMPO 2400/2409 30018G28KT 4000 TSRA BKN050CB BKN070 BECMG 2410/2412 FEW050
Issued Valid From Valid To
Apr-23 @ 08:09 UTC
(an hour ago)
Apr-23 @ 08:00 UTC
(an hour ago)
Apr-24 @ 12:00 UTC
(-1 days ago)
Apr-23 @ 08:00 to Apr-23 @ 12:00
TAF AMD LOWW 230809Z 2308/2412 20006KT CAVOK TX27/2314Z TN16/2406Z
Wind Visibility Clouds
200° at 6 knots 10,000+ meters
  • No significant clouds
Temporary Apr-23 @ 08:00 to Apr-23 @ 12:00
TEMPO 2308/2312 30010KT 9999 FEW050 SCT200
Wind Visibility Clouds
300° at 10 knots 10,000+ meters
  • Few at 5,000' AGL
  • Scattered at 20,000' AGL
Becoming Apr-23 @ 12:00 to Apr-24 @ 10:00
BECMG 2312/2314 30010KT 9999 FEW050 FEW070CB SCT300
Wind Visibility Clouds
300° at 10 knots 10,000+ meters
  • Few at 5,000' AGL
  • Few at 7,000' AGL
  • Scattered at 30,000' AGL
Temporary  (Probability 30%) Apr-23 @ 15:00 to Apr-24 @ 00:00
PROB30 TEMPO 2315/2324 30015G25KT 6000 -TSRA FEW050CB BKN080
Wind Visibility Clouds Conditions
300° at 15 knots
 Gusting to 25 knots
6,003 meters
  • Few at 5,000' AGL
  • Broken at 8,000' AGL
  • Light Thunderstorm
  • Light Rain
Temporary Apr-24 @ 00:00 to Apr-24 @ 09:00
TEMPO 2400/2409 30018G28KT 4000 TSRA BKN050CB BKN070
Wind Visibility Clouds Conditions
300° at 18 knots
 Gusting to 28 knots
4,007 meters
  • Broken at 5,000' AGL
  • Broken at 7,000' AGL
  • Thunderstorm
  • Rain
Becoming Apr-24 @ 10:00 to Apr-24 @ 12:00
BECMG 2410/2412 FEW050
Wind Visibility Clouds
300° at 10 knots 10,000+ meters
  • Few at 5,000' AGL
TAF AMD LOWW 230809Z 2308/2412 20006KT CAVOK TX27/2314Z TN16/2406Z TEMPO 2308/2312 30010KT 9999 FEW050 SCT200 BECMG 2312/2314 30010KT 9999 FEW050 FEW070CB SCT300 PROB30 TEMPO 2315/2324 30015G25KT 6000 -TSRA FEW050CB BKN080 TEMPO 2400/2409 30018G28KT 4000 TSRA BKN050CB BKN070 BECMG 2410/2412 FEW050
Issued Apr-23 @ 08:09 UTC
(an hour ago)
Valid From Apr-23 @ 08:00 UTC
(an hour ago)
Valid To Apr-24 @ 12:00 UTC
(-1 days ago)
Apr-23 @ 08:00 - Apr-23 @ 12:00
Wind Visibility
200° at 6 knots 10,000+ meters
Clouds
  • No significant clouds
Temporary Apr-23 @ 08:00 - Apr-23 @ 12:00
Wind Visibility
300° at 10 knots 10,000+ meters
Clouds
  • Few at 5,000' AGL
  • Scattered at 20,000' AGL
Becoming Apr-23 @ 12:00 - Apr-24 @ 10:00
Wind Visibility
300° at 10 knots 10,000+ meters
Clouds
  • Few at 5,000' AGL
  • Few at 7,000' AGL
  • Scattered at 30,000' AGL
Probability 30% Temporary Apr-23 @ 15:00 - Apr-24 @ 00:00
Wind Visibility
300° at 15 knots
 Gusting to 25 knots
6,003 meters
Clouds
  • Few at 5,000' AGL
  • Broken at 8,000' AGL
Conditions
  • Light Thunderstorm
  • Light Rain
Temporary Apr-24 @ 00:00 - Apr-24 @ 09:00
Wind Visibility
300° at 18 knots
 Gusting to 28 knots
4,007 meters
Clouds
  • Broken at 5,000' AGL
  • Broken at 7,000' AGL
Conditions
  • Thunderstorm
  • Rain
Becoming Apr-24 @ 10:00 - Apr-24 @ 12:00
Wind Visibility
300° at 10 knots 10,000+ meters
Clouds
  • Few at 5,000' AGL